sensor_id;sensor_type;location;lat;lon;timestamp;pressure;altitude;pressure_sealevel;temperature;humidity
48402;BME280;65988;52.422;16.746;2024-03-22T08:03:16;100189.47;;;11.98;76.99
48402;BME280;65988;52.422;16.746;2024-03-22T08:05:42;100283.50;;;12.27;77.11
48402;BME280;65988;52.422;16.746;2024-03-22T08:08:08;100216.06;;;12.28;76.13
48402;BME280;65988;52.422;16.746;2024-03-22T08:10:33;100178.34;;;11.94;75.48
48402;BME280;65988;52.422;16.746;2024-03-22T08:12:59;100269.84;;;11.41;77.58
48402;BME280;65988;52.422;16.746;2024-03-22T08:15:25;100321.69;;;11.10;78.78
48402;BME280;65988;52.422;16.746;2024-03-22T08:17:51;100325.03;;;11.13;79.24
48402;BME280;65988;52.422;16.746;2024-03-22T08:20:16;100378.47;;;10.85;80.80
48402;BME280;65988;52.422;16.746;2024-03-22T08:22:41;100382.38;;;10.67;81.37
48402;BME280;65988;52.422;16.746;2024-03-22T08:25:07;100351.38;;;9.96;82.09
48402;BME280;65988;52.422;16.746;2024-03-22T08:27:33;100380.69;;;10.66;81.41
48402;BME280;65988;52.422;16.746;2024-03-22T08:29:59;100370.31;;;9.97;82.28
48402;BME280;65988;52.422;16.746;2024-03-22T08:32:24;100425.72;;;10.21;83.28
48402;BME280;65988;52.422;16.746;2024-03-22T08:34:50;100438.53;;;10.61;83.34
48402;BME280;65988;52.422;16.746;2024-03-22T08:37:15;100395.56;;;10.90;82.51
48402;BME280;65988;52.422;16.746;2024-03-22T08:39:40;100278.63;;;10.46;80.63
48402;BME280;65988;52.422;16.746;2024-03-22T08:42:06;100337.03;;;10.53;81.13
48402;BME280;65988;52.422;16.746;2024-03-22T08:44:31;100314.97;;;10.73;80.37
48402;BME280;65988;52.422;16.746;2024-03-22T08:46:57;100328.09;;;10.96;80.17
48402;BME280;65988;52.422;16.746;2024-03-22T08:49:23;100318.13;;;11.71;78.91
48402;BME280;65988;52.422;16.746;2024-03-22T08:51:49;100282.34;;;10.99;78.43
48402;BME280;65988;52.422;16.746;2024-03-22T08:54:14;100331.25;;;10.45;80.44
48402;BME280;65988;52.422;16.746;2024-03-22T08:56:39;100304.78;;;10.35;79.98
48402;BME280;65988;52.422;16.746;2024-03-22T08:59:05;100400.56;;;10.96;81.00
48402;BME280;65988;52.422;16.746;2024-03-22T09:01:30;100357.06;;;11.11;80.70
48402;BME280;65988;52.422;16.746;2024-03-22T09:03:56;100329.31;;;11.73;79.39
48402;BME280;65988;52.422;16.746;2024-03-22T09:06:21;100263.78;;;11.69;77.46
48402;BME280;65988;52.422;16.746;2024-03-22T09:08:47;100249.50;;;12.83;75.79
48402;BME280;65988;52.422;16.746;2024-03-22T09:11:12;100107.31;;;13.96;72.22
48402;BME280;65988;52.422;16.746;2024-03-22T09:13:37;100050.91;;;15.61;69.17
48402;BME280;65988;52.422;16.746;2024-03-22T09:16:03;99943.50;;;14.34;68.27
48402;BME280;65988;52.422;16.746;2024-03-22T09:18:28;100049.25;;;13.37;69.56
48402;BME280;65988;52.422;16.746;2024-03-22T09:20:54;100125.00;;;13.04;70.90
48402;BME280;65988;52.422;16.746;2024-03-22T09:23:19;100198.28;;;12.89;72.29
48402;BME280;65988;52.422;16.746;2024-03-22T09:25:48;100233.44;;;12.50;73.24
48402;BME280;65988;52.422;16.746;2024-03-22T09:28:14;100337.41;;;12.17;75.54
48402;BME280;65988;52.422;16.746;2024-03-22T09:30:40;100247.53;;;12.18;74.12
48402;BME280;65988;52.422;16.746;2024-03-22T09:33:06;100226.47;;;12.52;73.58
48402;BME280;65988;52.422;16.746;2024-03-22T09:35:35;100190.22;;;12.73;72.51
48402;BME280;65988;52.422;16.746;2024-03-22T09:38:01;100300.41;;;13.33;73.13
48402;BME280;65988;52.422;16.746;2024-03-22T09:40:29;100217.31;;;14.17;71.24
48402;BME280;65988;52.422;16.746;2024-03-22T09:43:01;100158.91;;;14.44;69.78
48402;BME280;65988;52.422;16.746;2024-03-22T09:45:28;100068.88;;;15.14;67.58
48402;BME280;65988;52.422;16.746;2024-03-22T09:47:57;99994.03;;;16.17;65.42
48402;BME280;65988;52.422;16.746;2024-03-22T09:50:23;99925.19;;;17.39;62.94
48402;BME280;65988;52.422;16.746;2024-03-22T09:52:48;99774.25;;;16.87;61.55
48402;BME280;65988;52.422;16.746;2024-03-22T09:55:17;99932.59;;;16.57;62.58
48402;BME280;65988;52.422;16.746;2024-03-22T09:57:46;100002.19;;;14.94;64.27
48402;BME280;65988;52.422;16.746;2024-03-22T10:00:14;100074.97;;;15.48;64.86
48402;BME280;65988;52.422;16.746;2024-03-22T10:02:41;100032.91;;;15.56;64.13
48402;BME280;65988;52.422;16.746;2024-03-22T10:05:07;100034.91;;;15.67;64.27
48402;BME280;65988;52.422;16.746;2024-03-22T10:07:33;100205.13;;;14.38;66.88
48402;BME280;65988;52.422;16.746;2024-03-22T10:09:58;100144.59;;;14.54;66.48
48402;BME280;65988;52.422;16.746;2024-03-22T10:12:26;100118.72;;;13.52;67.20
48402;BME280;65988;52.422;16.746;2024-03-22T10:14:54;100361.22;;;13.28;70.53
48402;BME280;65988;52.422;16.746;2024-03-22T10:17:20;100248.38;;;13.79;69.10
48402;BME280;65988;52.422;16.746;2024-03-22T10:19:45;100265.63;;;13.60;70.15
48402;BME280;65988;52.422;16.746;2024-03-22T18:11:41;99926.44;;;10.91;100.00
48402;BME280;65988;52.422;16.746;2024-03-22T18:17:28;99900.66;;;10.63;100.00
48402;BME280;65988;52.422;16.746;2024-03-22T18:20:24;99946.59;;;11.07;100.00
48402;BME280;65988;52.422;16.746;2024-03-22T18:23:15;99910.47;;;10.78;100.00
